Time;durP1;ratioP1;P1;durP2;ratioP2;P2;SDS_P1;SDS_P2;PMS_P1;PMS_P2;Temp;Humidity;BMP_temperature;BMP_pressure;BME280_temperature;BME280_humidity;BME280_pressure;Samples;Min_cycle;Max_cycle;Signal;HPM_P1;HPM_P2
2022/04/06 00:00:47;;;;;;;16.43;8.00;;;9.60;99.90;;;;;;5095181;28;20175;-75
2022/04/06 00:03:13;;;;;;;13.97;6.97;;;9.50;99.90;;;;;;5093273;28;20170;-75
2022/04/06 00:05:39;;;;;;;18.23;7.90;;;9.60;99.90;;;;;;5093248;28;20557;-75
2022/04/06 00:08:05;;;;;;;18.07;7.50;;;9.50;99.90;;;;;;5093267;28;20184;-75
2022/04/06 00:10:31;;;;;;;19.63;6.97;;;9.50;99.90;;;;;;5075059;28;20174;-75
2022/04/06 00:13:00;;;;;;;18.10;7.03;;;9.60;99.90;;;;;;5075390;28;20190;-75
2022/04/06 00:15:26;;;;;;;15.70;7.10;;;9.60;99.90;;;;;;5093006;28;20214;-75
2022/04/06 00:17:53;;;;;;;23.73;7.33;;;9.60;99.90;;;;;;5093151;28;20205;-75
2022/04/06 00:20:19;;;;;;;19.73;7.30;;;9.60;99.90;;;;;;5074976;28;20260;-75
2022/04/06 00:22:44;;;;;;;17.90;7.20;;;9.50;99.90;;;;;;5093164;28;20170;-75
2022/04/06 00:25:10;;;;;;;17.73;6.83;;;9.60;99.90;;;;;;5093044;28;20275;-75
2022/04/06 00:27:36;;;;;;;18.40;7.10;;;9.50;99.90;;;;;;5093002;28;20174;-76
2022/04/06 00:30:03;;;;;;;18.43;6.90;;;9.50;99.90;;;;;;5074938;28;20182;-76
2022/04/06 00:32:28;;;;;;;18.97;7.30;;;9.50;99.90;;;;;;5075068;28;20178;-76
2022/04/06 00:37:38;;;;;;;16.20;6.87;;;9.50;99.90;;;;;;5093174;28;20197;-75
2022/04/06 00:40:08;;;;;;;15.87;7.20;;;9.50;99.90;;;;;;5093137;28;20175;-76
2022/04/06 00:42:33;;;;;;;15.37;7.37;;;9.50;99.90;;;;;;5093126;28;20193;-75
2022/04/06 00:45:00;;;;;;;19.63;8.00;;;9.50;99.90;;;;;;5092786;28;20227;-75
2022/04/06 00:47:25;;;;;;;20.67;7.20;;;9.50;99.90;;;;;;5092821;28;20671;-75
2022/04/06 00:49:51;;;;;;;14.63;6.60;;;9.60;99.90;;;;;;5092777;28;20189;-75
2022/04/06 00:52:16;;;;;;;16.47;7.07;;;9.50;99.90;;;;;;5092790;28;20174;-75
2022/04/06 00:54:42;;;;;;;12.83;6.30;;;9.60;99.90;;;;;;5092965;28;20588;-75
2022/04/06 00:57:08;;;;;;;13.93;6.00;;;9.60;99.90;;;;;;5092642;28;20287;-76
2022/04/06 00:59:33;;;;;;;18.00;6.47;;;9.60;99.90;;;;;;5092811;28;20649;-76
2022/04/06 01:02:00;;;;;;;16.73;6.90;;;9.60;99.90;;;;;;5093066;28;20186;-74
2022/04/06 01:04:26;;;;;;;13.93;6.53;;;9.60;99.90;;;;;;5074323;28;20265;-75
2022/04/06 01:06:52;;;;;;;13.43;6.07;;;9.60;99.90;;;;;;5094851;28;20642;-75
2022/04/06 01:09:21;;;;;;;20.37;6.70;;;9.60;99.90;;;;;;5096647;28;20167;-75
2022/04/06 01:11:50;;;;;;;12.63;5.60;;;9.50;99.90;;;;;;5098198;28;20224;-75
2022/04/06 01:14:16;;;;;;;12.47;6.07;;;9.50;99.90;;;;;;5078253;28;20194;-75
2022/04/06 01:16:59;;;;;;;11.40;6.33;;;9.50;99.90;;;;;;5078187;28;20339;-75
2022/04/06 01:19:33;;;;;;;13.40;6.33;;;9.50;99.90;;;;;;5096424;28;20167;-75
2022/04/06 01:21:59;;;;;;;18.77;6.67;;;9.50;99.90;;;;;;5096370;28;20217;-75
2022/04/06 01:24:25;;;;;;;15.30;6.23;;;9.50;99.90;;;;;;5096624;28;20183;-75
2022/04/06 01:26:51;;;;;;;12.47;5.90;;;9.50;99.90;;;;;;5096000;28;20640;-75
2022/04/06 01:29:16;;;;;;;15.80;6.13;;;9.50;99.90;;;;;;5096260;28;20192;-75
2022/04/06 01:31:42;;;;;;;15.10;6.17;;;9.50;99.90;;;;;;5077984;28;20235;-75
2022/04/06 01:34:08;;;;;;;13.30;6.57;;;9.40;99.90;;;;;;5078004;28;20240;-76
2022/04/06 01:36:33;;;;;;;18.90;6.80;;;9.40;99.90;;;;;;5096013;28;20703;-75
2022/04/06 01:38:59;;;;;;;15.87;5.90;;;9.40;99.90;;;;;;5096131;28;20183;-76
2022/04/06 01:41:31;;;;;;;19.37;6.47;;;9.40;99.90;;;;;;5095921;28;20170;-75
2022/04/06 01:43:56;;;;;;;18.47;5.90;;;9.40;99.90;;;;;;5076722;28;20175;-76
2022/04/06 01:46:22;;;;;;;13.90;6.23;;;9.40;99.90;;;;;;5095879;28;20267;-76
2022/04/06 01:54:23;;;;;;;10.47;4.93;;;9.50;99.90;;;;;;5096156;28;20288;-75
2022/04/06 01:56:49;;;;;;;15.03;5.13;;;9.40;99.90;;;;;;5096025;28;20209;-75
2022/04/06 01:59:15;;;;;;;10.93;5.10;;;9.40;99.90;;;;;;5095903;28;20170;-75
2022/04/06 02:01:43;;;;;;;9.97;4.30;;;9.40;99.90;;;;;;5095955;28;20646;-75
2022/04/06 02:04:15;;;;;;;13.43;4.77;;;9.40;99.90;;;;;;5095746;28;20523;-76
2022/04/06 02:06:41;;;;;;;15.20;5.33;;;9.40;99.90;;;;;;5095738;28;20249;-75
2022/04/06 02:09:08;;;;;;;19.13;5.17;;;9.40;99.90;;;;;;5095829;28;20228;-75
2022/04/06 02:11:35;;;;;;;14.87;4.90;;;9.40;99.90;;;;;;5095456;28;20318;-75
2022/04/06 02:14:00;;;;;;;14.47;5.73;;;9.40;99.90;;;;;;5095396;28;20547;-76
2022/04/06 02:16:26;;;;;;;14.30;4.87;;;9.40;99.90;;;;;;5095183;28;20214;-76
2022/04/06 02:18:52;;;;;;;11.57;3.80;;;9.40;99.90;;;;;;5094320;28;20182;-77
2022/04/06 02:21:18;;;;;;;9.77;4.60;;;9.40;99.90;;;;;;5095078;28;20173;-76
2022/04/06 02:23:43;;;;;;;11.60;4.20;;;9.40;99.90;;;;;;5095214;28;20262;-76
2022/04/06 02:26:09;;;;;;;11.77;4.70;;;9.40;99.90;;;;;;5095067;28;20208;-76
2022/04/06 02:28:35;;;;;;;12.53;4.33;;;9.40;99.90;;;;;;5077211;28;20230;-76
2022/04/06 02:31:00;;;;;;;12.93;3.97;;;9.40;99.90;;;;;;5077070;28;20186;-75
2022/04/06 02:33:26;;;;;;;11.40;4.43;;;9.40;99.90;;;;;;5095682;28;20178;-75
2022/04/06 02:35:51;;;;;;;11.57;5.03;;;9.40;99.90;;;;;;5094788;28;20577;-75
2022/04/06 02:38:17;;;;;;;13.50;4.47;;;9.40;99.90;;;;;;5076942;28;20672;-75
2022/04/06 02:40:42;;;;;;;14.93;4.73;;;9.40;99.90;;;;;;5095244;28;20182;-75
2022/04/06 02:43:08;;;;;;;11.20;4.03;;;9.40;99.90;;;;;;5094902;28;20676;-75
2022/04/06 02:45:33;;;;;;;9.33;3.83;;;9.50;99.90;;;;;;5094878;28;20202;-75
2022/04/06 02:47:59;;;;;;;12.93;3.90;;;9.50;99.90;;;;;;5094847;28;20555;-76
2022/04/06 02:50:24;;;;;;;10.27;3.57;;;9.50;99.90;;;;;;5094836;28;20184;-75
2022/04/06 02:52:50;;;;;;;11.57;4.40;;;9.50;99.90;;;;;;5094819;28;20200;-75
2022/04/06 02:55:16;;;;;;;9.57;3.50;;;9.50;99.90;;;;;;5076586;28;20222;-76
2022/04/06 02:57:42;;;;;;;12.63;4.10;;;9.50;99.90;;;;;;5095345;28;20194;-76
2022/04/06 03:00:09;;;;;;;10.57;3.77;;;9.40;99.90;;;;;;5096613;28;20174;-75
2022/04/06 03:02:35;;;;;;;11.53;4.10;;;9.40;99.90;;;;;;5096489;28;20273;-76
2022/04/06 03:05:00;;;;;;;10.07;3.77;;;9.30;99.90;;;;;;5076211;28;20288;-75
2022/04/06 03:07:26;;;;;;;11.60;4.30;;;9.40;99.90;;;;;;5076261;28;20221;-76
2022/04/06 03:09:52;;;;;;;7.53;3.90;;;9.40;99.90;;;;;;5094861;28;20179;-76
2022/04/06 03:12:18;;;;;;;11.57;4.30;;;9.30;99.90;;;;;;5094313;28;20185;-75
2022/04/06 03:14:43;;;;;;;11.90;3.83;;;9.30;99.90;;;;;;5094088;28;20185;-75
2022/04/06 03:17:09;;;;;;;15.17;4.47;;;9.30;99.90;;;;;;5094122;28;20630;-76
2022/04/06 03:19:35;;;;;;;13.27;4.00;;;9.30;99.90;;;;;;5094228;28;20178;-75
2022/04/06 03:22:01;;;;;;;12.40;4.27;;;9.40;99.90;;;;;;5094703;28;20537;-76
2022/04/06 03:24:27;;;;;;;12.07;4.40;;;9.40;99.90;;;;;;5094038;28;20175;-75
2022/04/06 03:26:53;;;;;;;7.60;3.73;;;9.40;99.90;;;;;;5094331;28;20180;-75
2022/04/06 03:29:18;;;;;;;10.87;4.83;;;9.40;99.90;;;;;;5093486;28;20202;-76
2022/04/06 03:31:44;;;;;;;11.03;4.20;;;9.40;99.90;;;;;;5075562;28;20653;-75
2022/04/06 03:34:09;;;;;;;12.57;4.73;;;9.40;99.90;;;;;;5094146;28;20594;-76
2022/04/06 03:36:35;;;;;;;9.03;4.00;;;9.40;99.90;;;;;;5093754;28;20213;-75
2022/04/06 03:39:00;;;;;;;11.27;4.60;;;9.40;99.90;;;;;;5075692;28;20186;-76
2022/04/06 03:41:26;;;;;;;15.60;4.73;;;9.40;99.90;;;;;;5093799;28;20723;-75
2022/04/06 03:43:52;;;;;;;17.20;4.60;;;9.40;99.90;;;;;;5093702;28;20183;-75
2022/04/06 03:46:18;;;;;;;9.87;4.37;;;9.40;99.90;;;;;;5075545;28;20202;-75
2022/04/06 03:48:44;;;;;;;11.20;4.53;;;9.40;99.90;;;;;;5093725;28;20205;-75
2022/04/06 03:51:09;;;;;;;12.47;5.10;;;9.40;99.90;;;;;;5093619;28;20180;-75
2022/04/06 03:53:35;;;;;;;12.63;5.17;;;9.40;99.90;;;;;;5094416;28;20265;-75
2022/04/06 03:56:01;;;;;;;9.43;4.73;;;9.40;99.90;;;;;;5077457;28;20210;-74
2022/04/06 03:58:26;;;;;;;9.90;4.50;;;9.30;99.90;;;;;;5096709;28;20649;-76
2022/04/06 04:00:52;;;;;;;8.37;4.43;;;9.30;99.90;;;;;;5079037;28;20535;-75
2022/04/06 04:03:17;;;;;;;12.77;4.63;;;9.30;99.90;;;;;;5096123;28;20676;-76
2022/04/06 04:05:43;;;;;;;10.70;4.53;;;9.30;99.90;;;;;;5096649;28;20205;-75
2022/04/06 04:08:09;;;;;;;11.20;4.50;;;9.30;99.90;;;;;;5096265;28;20190;-76
2022/04/06 04:10:34;;;;;;;11.13;4.93;;;9.30;99.90;;;;;;5078723;28;20175;-76
2022/04/06 04:13:00;;;;;;;8.07;4.03;;;9.30;99.90;;;;;;5094737;28;20273;-76
2022/04/06 04:15:25;;;;;;;10.13;4.60;;;9.30;99.90;;;;;;5077104;28;20225;-76
2022/04/06 04:17:51;;;;;;;9.90;4.10;;;9.20;99.90;;;;;;5102174;28;20202;-77
2022/04/06 04:20:16;;;;;;;10.50;3.90;;;9.20;99.90;;;;;;5111509;28;20274;-78
2022/04/06 04:22:42;;;;;;;12.97;4.27;;;9.10;99.90;;;;;;5102256;28;20174;-76
2022/04/06 04:25:08;;;;;;;9.93;4.07;;;9.10;99.90;;;;;;5096033;28;20197;-76
2022/04/06 04:27:34;;;;;;;7.73;3.33;;;9.10;99.90;;;;;;5095861;28;20174;-76
2022/04/06 04:29:59;;;;;;;13.37;3.90;;;9.10;99.90;;;;;;5078344;28;20193;-75
2022/04/06 04:32:25;;;;;;;11.47;3.97;;;9.00;99.90;;;;;;5095747;28;20178;-76
2022/04/06 04:34:50;;;;;;;10.87;3.70;;;9.00;99.90;;;;;;5095874;28;20194;-76
2022/04/06 04:37:17;;;;;;;10.27;3.70;;;9.00;99.90;;;;;;5095526;28;20209;-77
2022/04/06 04:39:42;;;;;;;10.53;3.87;;;8.90;99.90;;;;;;5096130;28;20260;-76
2022/04/06 04:42:08;;;;;;;8.70;3.37;;;8.90;99.90;;;;;;5099074;28;20220;-77
2022/04/06 04:44:34;;;;;;;10.33;3.27;;;8.90;99.90;;;;;;5099829;28;20189;-77
2022/04/06 04:47:00;;;;;;;12.17;4.40;;;8.90;99.90;;;;;;5099767;28;20593;-77
2022/04/06 04:49:25;;;;;;;11.17;3.50;;;8.90;99.90;;;;;;5100545;28;20178;-77
2022/04/06 04:51:51;;;;;;;7.53;3.70;;;8.90;99.90;;;;;;5083120;28;20190;-77
2022/04/06 04:54:17;;;;;;;11.23;4.23;;;8.90;99.90;;;;;;5082070;28;20197;-75
2022/04/06 04:56:43;;;;;;;9.43;3.60;;;8.90;99.90;;;;;;5080208;28;20714;-77
2022/04/06 04:59:09;;;;;;;5.93;3.23;;;8.90;99.90;;;;;;5100097;28;20177;-77
2022/04/06 05:01:34;;;;;;;7.77;3.20;;;8.90;99.90;;;;;;5096950;28;20649;-77
2022/04/06 05:04:00;;;;;;;10.53;3.20;;;8.90;99.90;;;;;;5099884;28;20265;-77
2022/04/06 05:06:26;;;;;;;10.93;3.30;;;8.90;99.90;;;;;;5099738;28;20237;-77
2022/04/06 05:08:51;;;;;;;11.30;3.37;;;8.90;99.90;;;;;;5099748;28;20192;-77
2022/04/06 05:11:17;;;;;;;12.87;2.87;;;9.00;99.90;;;;;;5097182;28;20185;-77
2022/04/06 05:13:43;;;;;;;9.53;2.77;;;9.00;99.90;;;;;;5061465;28;20273;-78
2022/04/06 05:16:08;;;;;;;8.87;2.50;;;9.00;99.90;;;;;;5081929;28;20641;-77
2022/04/06 05:18:34;;;;;;;11.63;2.60;;;9.00;99.90;;;;;;5063193;28;20592;-77
2022/04/06 05:21:00;;;;;;;10.47;3.73;;;9.00;99.90;;;;;;5088207;28;20233;-77
2022/04/06 05:23:25;;;;;;;8.97;3.13;;;9.10;99.90;;;;;;5079377;28;20251;-77
2022/04/06 05:25:51;;;;;;;13.20;2.97;;;9.10;99.90;;;;;;5099890;28;20273;-77
2022/04/06 05:28:18;;;;;;;6.83;3.03;;;9.20;99.90;;;;;;5100583;28;20630;-77
2022/04/06 05:30:45;;;;;;;11.80;3.10;;;9.20;99.90;;;;;;5100549;28;20170;-77
2022/04/06 05:33:11;;;;;;;7.00;2.50;;;9.20;99.90;;;;;;5100433;28;20171;-77
2022/04/06 05:35:36;;;;;;;9.37;2.97;;;9.10;99.90;;;;;;5081976;28;20205;-76
2022/04/06 05:38:02;;;;;;;12.87;2.93;;;9.10;99.90;;;;;;5081246;28;20252;-77
2022/04/06 05:40:27;;;;;;;10.57;2.80;;;9.10;99.90;;;;;;5099356;28;20189;-77
2022/04/06 05:42:53;;;;;;;6.33;3.07;;;9.10;99.90;;;;;;5099564;28;20236;-77
2022/04/06 05:45:19;;;;;;;8.47;3.20;;;9.10;99.90;;;;;;5082138;28;20205;-77
2022/04/06 05:47:45;;;;;;;8.27;2.93;;;9.10;99.90;;;;;;5081067;28;20511;-76
2022/04/06 05:50:12;;;;;;;7.70;3.33;;;9.20;99.90;;;;;;5099407;28;20216;-77
2022/04/06 05:52:38;;;;;;;9.63;3.70;;;9.20;99.90;;;;;;5097164;28;20182;-77
2022/04/06 05:55:04;;;;;;;10.50;4.23;;;9.20;99.90;;;;;;5078089;28;20214;-77
2022/04/06 05:57:30;;;;;;;9.70;3.90;;;9.20;99.90;;;;;;5096144;28;20202;-77
2022/04/06 05:59:55;;;;;;;8.83;3.77;;;9.20;99.90;;;;;;5096282;28;20193;-76
2022/04/06 06:02:23;;;;;;;15.10;4.07;;;9.20;99.90;;;;;;5079280;28;20556;-77
2022/04/06 06:04:49;;;;;;;12.77;4.53;;;9.20;99.90;;;;;;5096514;28;20692;-77
2022/04/06 06:07:15;;;;;;;10.10;3.87;;;9.20;99.90;;;;;;5096793;28;20207;-77
2022/04/06 06:09:40;;;;;;;11.00;4.10;;;9.20;99.90;;;;;;5097632;28;20172;-78
2022/04/06 06:12:06;;;;;;;10.53;3.23;;;9.20;99.90;;;;;;5078800;28;20221;-77
2022/04/06 06:14:31;;;;;;;12.43;3.97;;;9.20;99.90;;;;;;5097282;28;20638;-77
2022/04/06 06:17:00;;;;;;;6.70;3.23;;;9.30;99.90;;;;;;5097336;28;20198;-77
2022/04/06 06:19:26;;;;;;;7.03;3.53;;;9.30;99.90;;;;;;5096434;28;20231;-78
2022/04/06 06:21:52;;;;;;;8.07;3.60;;;9.30;99.90;;;;;;5096362;28;20170;-77
2022/04/06 06:24:18;;;;;;;6.30;3.30;;;9.30;99.90;;;;;;5096035;28;20252;-77
2022/04/06 06:26:44;;;;;;;8.67;3.50;;;9.30;99.90;;;;;;5096050;28;20194;-77
2022/04/06 06:29:11;;;;;;;7.17;4.10;;;9.30;99.90;;;;;;5095892;28;20209;-77
2022/04/06 06:31:37;;;;;;;12.07;3.70;;;9.30;99.90;;;;;;5096392;28;20174;-77
2022/04/06 06:34:03;;;;;;;9.10;3.10;;;9.30;99.90;;;;;;5095669;28;20185;-77
2022/04/06 06:36:28;;;;;;;7.13;2.70;;;9.30;99.90;;;;;;5077318;28;20221;-78
2022/04/06 06:38:55;;;;;;;11.80;3.20;;;9.30;99.90;;;;;;5095771;28;20525;-77
2022/04/06 06:41:22;;;;;;;9.13;3.07;;;9.30;99.90;;;;;;5095742;28;20236;-77
2022/04/06 06:43:48;;;;;;;13.77;3.97;;;9.30;99.90;;;;;;5095602;28;20178;-76
2022/04/06 06:46:18;;;;;;;12.13;3.13;;;9.30;99.90;;;;;;5077194;28;20688;-77
2022/04/06 06:48:44;;;;;;;9.70;3.27;;;9.30;99.90;;;;;;5077192;28;20182;-76
2022/04/06 06:51:11;;;;;;;9.93;3.33;;;9.30;99.90;;;;;;5095779;28;20244;-77
2022/04/06 06:53:36;;;;;;;6.57;3.30;;;9.30;99.90;;;;;;5095460;28;20182;-77
2022/04/06 06:56:02;;;;;;;6.90;2.80;;;9.30;99.90;;;;;;5095303;28;20206;-77
2022/04/06 06:58:27;;;;;;;9.10;2.83;;;9.30;99.90;;;;;;5076907;28;20174;-77
2022/04/06 07:00:53;;;;;;;9.50;3.33;;;9.30;99.90;;;;;;5094926;28;20533;-76
2022/04/06 07:03:19;;;;;;;10.63;3.50;;;9.30;99.90;;;;;;5095184;28;20193;-77
2022/04/06 07:05:45;;;;;;;6.40;3.20;;;9.30;99.90;;;;;;5094745;28;20194;-77
2022/04/06 07:08:11;;;;;;;11.70;3.60;;;9.30;99.90;;;;;;5076932;28;20188;-77
2022/04/06 07:10:37;;;;;;;4.97;2.60;;;9.30;99.90;;;;;;5076955;28;20607;-77
2022/04/06 07:13:02;;;;;;;9.57;2.93;;;9.30;99.90;;;;;;5094801;28;20173;-77
2022/04/06 07:15:28;;;;;;;6.07;2.93;;;9.20;99.90;;;;;;5076345;28;20225;-77
2022/04/06 07:17:56;;;;;;;9.03;3.53;;;9.20;99.90;;;;;;5094727;28;20208;-77
2022/04/06 07:20:24;;;;;;;6.43;2.40;;;9.30;99.90;;;;;;5094918;28;20519;-77
2022/04/06 07:22:50;;;;;;;5.37;3.00;;;9.30;99.90;;;;;;5076426;28;20208;-77
2022/04/06 07:25:17;;;;;;;13.03;3.80;;;9.30;99.90;;;;;;5094829;28;20200;-77
2022/04/06 07:27:42;;;;;;;8.33;3.47;;;9.30;99.90;;;;;;5094646;28;20179;-77
2022/04/06 07:30:09;;;;;;;9.87;3.13;;;9.30;99.90;;;;;;5095006;28;20523;-77
2022/04/06 07:32:36;;;;;;;10.23;3.33;;;9.30;99.90;;;;;;5096270;28;20174;-77
2022/04/06 07:35:06;;;;;;;7.73;3.10;;;9.30;99.90;;;;;;5095171;28;20205;-77
2022/04/06 07:37:39;;;;;;;7.60;2.90;;;9.40;99.90;;;;;;5094259;28;20248;-77
2022/04/06 07:40:07;;;;;;;10.67;3.20;;;9.40;99.90;;;;;;5094463;28;20176;-77
2022/04/06 07:42:35;;;;;;;9.47;3.20;;;9.40;99.90;;;;;;5094576;28;20169;-77
2022/04/06 07:45:04;;;;;;;6.13;3.30;;;9.40;99.90;;;;;;5076064;28;20200;-77
2022/04/06 07:47:31;;;;;;;10.50;3.60;;;9.40;99.90;;;;;;5076054;28;20272;-77
2022/04/06 07:50:01;;;;;;;7.57;3.13;;;9.50;99.90;;;;;;5076064;28;20185;-76
2022/04/06 07:52:27;;;;;;;5.97;3.30;;;9.50;99.90;;;;;;5094097;28;20174;-77
2022/04/06 07:54:52;;;;;;;11.43;3.13;;;9.50;99.90;;;;;;5094397;28;20198;-77
2022/04/06 07:57:22;;;;;;;7.67;3.23;;;9.60;99.90;;;;;;5076022;28;20217;-77
2022/04/06 07:59:48;;;;;;;6.53;3.00;;;9.60;99.90;;;;;;5094204;28;20171;-77
2022/04/06 08:02:14;;;;;;;6.67;3.83;;;9.60;99.90;;;;;;5076338;28;20189;-77
2022/04/06 08:04:40;;;;;;;6.80;3.13;;;9.60;99.90;;;;;;5093946;28;20174;-77
2022/04/06 08:07:05;;;;;;;8.33;3.50;;;9.80;99.90;;;;;;5094185;28;20178;-77
2022/04/06 08:09:31;;;;;;;8.80;3.20;;;9.70;99.90;;;;;;5094061;28;20174;-76
2022/04/06 08:11:56;;;;;;;10.90;3.50;;;9.60;99.90;;;;;;5075654;28;20675;-76
2022/04/06 08:14:22;;;;;;;6.83;3.60;;;9.60;99.90;;;;;;5093954;28;20188;-77
2022/04/06 08:16:47;;;;;;;9.43;3.63;;;9.60;99.90;;;;;;5092977;28;20248;-77
2022/04/06 08:19:13;;;;;;;5.20;2.63;;;9.60;99.90;;;;;;5075592;28;20186;-76
2022/04/06 08:21:40;;;;;;;8.67;3.53;;;9.60;99.90;;;;;;5075680;28;20304;-77
2022/04/06 08:24:06;;;;;;;6.37;3.00;;;9.50;99.90;;;;;;5093551;28;20171;-76
2022/04/06 08:26:31;;;;;;;6.47;3.40;;;9.50;99.90;;;;;;5093339;28;20225;-76
2022/04/06 08:28:57;;;;;;;9.30;3.07;;;9.50;99.90;;;;;;5093377;28;20201;-77
2022/04/06 08:31:22;;;;;;;9.40;3.00;;;9.50;99.90;;;;;;5093295;28;20182;-76
2022/04/06 08:33:48;;;;;;;7.90;3.00;;;9.50;99.90;;;;;;5075364;28;20544;-76
2022/04/06 08:36:13;;;;;;;6.67;2.80;;;9.60;99.90;;;;;;5075395;28;20720;-77
2022/04/06 08:38:39;;;;;;;11.43;3.40;;;9.60;99.90;;;;;;5075274;28;20205;-77
2022/04/06 08:41:06;;;;;;;7.37;2.83;;;9.70;99.90;;;;;;5075423;28;20228;-78
2022/04/06 08:43:32;;;;;;;7.50;2.40;;;9.80;99.90;;;;;;5075139;28;20181;-77
2022/04/06 08:45:58;;;;;;;7.77;2.80;;;9.70;99.90;;;;;;5075281;28;20202;-78
2022/04/06 08:48:30;;;;;;;6.10;2.60;;;9.90;99.90;;;;;;5075218;28;20272;-77
2022/04/06 08:51:00;;;;;;;10.00;2.90;;;9.90;99.90;;;;;;5093070;28;20163;-77
2022/04/06 08:53:26;;;;;;;4.57;1.87;;;10.00;99.90;;;;;;5093109;28;20576;-77
2022/04/06 08:55:51;;;;;;;12.67;2.73;;;10.10;99.90;;;;;;5074862;28;20209;-77
2022/04/06 08:58:17;;;;;;;7.53;2.17;;;10.10;99.90;;;;;;5093417;28;20173;-77
2022/04/06 09:00:42;;;;;;;8.20;2.40;;;10.20;99.90;;;;;;5093509;28;20188;-77
2022/04/06 09:03:09;;;;;;;6.97;2.20;;;10.20;99.90;;;;;;5093810;28;20303;-76
2022/04/06 09:05:35;;;;;;;8.17;2.00;;;10.20;99.90;;;;;;5093167;28;20190;-77
2022/04/06 09:08:03;;;;;;;4.77;1.57;;;10.30;99.90;;;;;;5075202;28;20192;-76
2022/04/06 09:10:36;;;;;;;6.17;1.93;;;10.30;99.90;;;;;;5075065;28;20200;-77
2022/04/06 09:13:11;;;;;;;4.43;1.63;;;10.40;99.90;;;;;;5093140;28;20231;-77
2022/04/06 09:15:37;;;;;;;5.67;1.87;;;10.50;99.90;;;;;;5074596;28;20561;-77
2022/04/06 09:18:02;;;;;;;6.53;1.90;;;10.50;99.90;;;;;;5092971;28;20206;-77
2022/04/06 09:20:29;;;;;;;3.70;1.67;;;10.50;99.90;;;;;;5075814;28;20278;-77
2022/04/06 09:22:55;;;;;;;7.67;1.90;;;10.50;99.90;;;;;;5093728;28;20781;-77
2022/04/06 09:25:21;;;;;;;6.73;1.47;;;10.50;99.90;;;;;;5093321;28;20206;-77
2022/04/06 09:27:47;;;;;;;7.33;2.03;;;10.50;99.90;;;;;;5093307;28;20174;-77
2022/04/06 09:30:13;;;;;;;5.30;1.53;;;10.50;99.90;;;;;;5096728;28;20538;-77
2022/04/06 09:32:42;;;;;;;3.87;1.50;;;10.50;99.90;;;;;;5096483;28;20641;-77
2022/04/06 09:35:28;;;;;;;5.30;1.87;;;10.40;99.90;;;;;;5078167;28;20285;-77
2022/04/06 09:38:19;;;;;;;5.00;1.70;;;10.40;1.00;;;;;;5096784;28;20259;-76
2022/04/06 09:40:45;;;;;;;4.53;1.60;;;10.40;4.90;;;;;;5096674;28;20212;-77
2022/04/06 09:43:27;;;;;;;9.67;1.70;;;10.40;99.90;;;;;;5096801;28;20202;-76
2022/04/06 09:48:52;;;;;;;5.13;1.40;;;10.40;1.00;;;;;;5096343;28;20648;-77
2022/04/06 09:51:19;;;;;;;4.27;1.43;;;10.40;1.00;;;;;;5096354;28;20194;-77
2022/04/06 09:53:48;;;;;;;5.33;1.23;;;10.40;99.90;;;;;;5096188;28;20193;-77
2022/04/06 09:56:14;;;;;;;4.47;1.53;;;10.30;40.60;;;;;;5096092;28;20256;-76
2022/04/06 09:58:41;;;;;;;4.90;1.50;;;10.40;99.90;;;;;;5078322;28;20555;-77
2022/04/06 10:01:06;;;;;;;4.00;1.47;;;10.30;1.00;;;;;;5077910;28;20636;-77
2022/04/06 10:03:37;;;;;;;5.10;1.77;;;10.30;99.90;;;;;;5096024;28;20217;-76
2022/04/06 10:06:03;;;;;;;11.27;1.63;;;10.30;99.90;;;;;;5077329;28;20240;-76
2022/04/06 10:08:31;;;;;;;6.47;1.17;;;10.40;1.00;;;;;;5077867;28;20187;-77
2022/04/06 10:10:58;;;;;;;3.60;1.40;;;10.30;99.90;;;;;;5077792;28;20186;-77
2022/04/06 10:13:25;;;;;;;3.70;1.13;;;10.40;1.00;;;;;;5095872;28;20173;-77
2022/04/06 10:15:51;;;;;;;4.47;1.70;;;10.40;1.00;;;;;;5095470;28;20284;-77
2022/04/06 10:18:18;;;;;;;2.03;1.20;;;10.50;1.00;;;;;;5095732;28;20222;-77
2022/04/06 10:21:02;;;;;;;5.40;1.97;;;10.50;1.00;;;;;;5077684;28;20277;-76
2022/04/06 10:23:30;;;;;;;2.47;1.40;;;10.50;1.00;;;;;;5096088;28;20296;-76
2022/04/06 10:26:08;;;;;;;8.37;1.53;;;10.60;1.00;;;;;;5095443;28;20229;-77
2022/04/06 10:28:34;;;;;;;4.93;1.40;;;10.60;1.00;;;;;;5077447;28;20236;-77
2022/04/06 10:31:16;;;;;;;4.97;1.60;;;10.70;1.00;;;;;;5095600;28;20182;-77
2022/04/06 10:33:42;;;;;;;3.30;1.43;;;10.70;1.00;;;;;;5077503;28;20197;-76
2022/04/06 10:36:16;;;;;;;3.43;1.40;;;10.70;1.00;;;;;;5095219;28;20198;-76
2022/04/06 10:39:04;;;;;;;2.93;1.40;;;10.60;1.00;;;;;;5094793;28;20157;-77
2022/04/06 10:41:31;;;;;;;5.73;1.60;;;10.70;99.90;;;;;;5095252;28;20691;-77
2022/04/06 10:43:57;;;;;;;6.77;1.93;;;10.70;99.90;;;;;;5095154;28;20182;-77
2022/04/06 10:46:39;;;;;;;6.67;1.53;;;10.70;99.90;;;;;;5077130;28;20202;-77
2022/04/06 10:49:09;;;;;;;4.03;1.60;;;10.60;1.00;;;;;;5076856;28;20197;-77
2022/04/06 10:51:43;;;;;;;10.17;1.57;;;10.70;1.00;;;;;;5095114;28;20174;-76
2022/04/06 10:54:14;;;;;;;4.30;1.50;;;10.70;1.00;;;;;;5095174;28;20165;-77
2022/04/06 10:56:49;;;;;;;3.20;1.70;;;10.70;99.90;;;;;;5095196;28;20206;-77
2022/04/06 10:59:28;;;;;;;3.13;1.30;;;10.70;1.00;;;;;;5076675;28;20173;-77
2022/04/06 11:02:15;;;;;;;3.10;1.33;;;10.70;1.00;;;;;;5094890;28;20159;-77
2022/04/06 11:04:41;;;;;;;6.03;1.43;;;10.70;1.00;;;;;;5094944;28;20209;-77
2022/04/06 11:07:08;;;;;;;3.03;1.17;;;10.70;99.90;;;;;;5076669;28;20182;-77
2022/04/06 11:12:27;;;;;;;4.17;1.43;;;10.80;99.90;;;;;;5096039;28;20270;-76
2022/04/06 11:14:52;;;;;;;7.63;1.90;;;10.70;99.90;;;;;;5095176;28;20206;-76
2022/04/06 11:17:32;;;;;;;3.50;1.30;;;10.70;99.90;;;;;;5091299;22;20234;-76
2022/04/06 11:19:58;;;;;;;5.67;1.60;;;10.80;1.00;;;;;;5094155;28;20181;-76
2022/04/06 11:22:23;;;;;;;5.10;1.47;;;10.80;1.00;;;;;;5094382;28;20676;-77
2022/04/06 11:24:49;;;;;;;8.57;1.73;;;10.80;1.00;;;;;;5094627;28;20171;-76
2022/04/06 11:27:27;;;;;;;4.37;1.70;;;10.80;99.90;;;;;;5075987;28;20289;-76
2022/04/06 11:30:00;;;;;;;3.47;1.43;;;10.80;1.00;;;;;;5075852;28;20185;-77
2022/04/06 11:32:25;;;;;;;3.43;1.73;;;10.80;99.90;;;;;;5075944;28;20197;-77
2022/04/06 11:34:51;;;;;;;6.77;1.37;;;10.80;99.90;;;;;;5075992;28;20187;-77
2022/04/06 11:37:16;;;;;;;5.03;1.67;;;10.80;28.70;;;;;;5093921;28;20224;-77
2022/04/06 11:39:42;;;;;;;3.93;1.80;;;10.70;1.00;;;;;;5094195;28;20261;-77
2022/04/06 11:42:16;;;;;;;5.47;1.63;;;10.60;99.90;;;;;;5093837;28;20239;-77
2022/04/06 11:44:43;;;;;;;4.87;1.60;;;10.60;1.00;;;;;;5075966;28;20238;-77
2022/04/06 11:47:08;;;;;;;3.80;1.50;;;10.50;99.90;;;;;;5075595;28;20198;-77
2022/04/06 11:49:35;;;;;;;4.73;1.40;;;10.50;1.00;;;;;;5093695;28;20565;-77
2022/04/06 11:52:01;;;;;;;4.30;1.60;;;10.50;99.90;;;;;;5074790;28;20189;-77
2022/04/06 11:54:27;;;;;;;3.70;1.40;;;10.50;1.00;;;;;;5075355;28;20178;-76
2022/04/06 11:56:53;;;;;;;3.90;1.60;;;10.50;1.00;;;;;;5093526;28;20228;-76
2022/04/06 11:59:22;;;;;;;4.70;1.50;;;10.50;99.90;;;;;;5093594;28;20646;-77
2022/04/06 12:01:48;;;;;;;5.23;1.60;;;10.50;1.00;;;;;;5093569;28;20166;-76
2022/04/06 12:04:24;;;;;;;2.93;1.40;;;10.50;1.00;;;;;;5075547;28;20182;-77
2022/04/06 12:06:53;;;;;;;3.77;1.33;;;10.50;99.90;;;;;;5093350;28;20216;-76
2022/04/06 12:09:20;;;;;;;3.90;1.40;;;10.50;1.00;;;;;;5075298;28;20182;-76
2022/04/06 12:11:52;;;;;;;1.93;1.43;;;10.60;99.90;;;;;;5093953;28;20201;-77
2022/04/06 12:14:19;;;;;;;3.33;1.47;;;10.60;1.00;;;;;;5075566;28;20186;-77
2022/04/06 12:16:47;;;;;;;3.37;1.40;;;10.60;1.00;;;;;;5093162;28;20349;-76
2022/04/06 12:19:13;;;;;;;4.47;1.47;;;10.60;1.00;;;;;;5075160;28;20182;-77
2022/04/06 12:21:42;;;;;;;3.57;1.23;;;10.60;99.90;;;;;;5093300;28;20538;-77
2022/04/06 12:24:08;;;;;;;4.53;1.40;;;10.60;54.30;;;;;;5093132;28;20170;-76
2022/04/06 12:26:45;;;;;;;5.00;1.63;;;10.60;1.00;;;;;;5093314;28;20197;-76
2022/04/06 12:29:15;;;;;;;3.60;1.53;;;10.60;99.90;;;;;;5093548;28;20189;-77
2022/04/06 12:31:42;;;;;;;3.47;1.40;;;10.70;1.00;;;;;;5093324;28;20181;-77
2022/04/06 12:34:09;;;;;;;5.73;1.70;;;10.70;1.00;;;;;;5077158;28;20676;-77
2022/04/06 12:36:35;;;;;;;3.53;1.20;;;10.70;1.00;;;;;;5079841;28;20214;-77
2022/04/06 12:39:11;;;;;;;3.77;1.40;;;10.70;99.90;;;;;;5084405;28;20174;-76
2022/04/06 12:42:05;;;;;;;3.97;1.80;;;10.70;1.00;;;;;;5096964;28;20158;-77
2022/04/06 12:44:35;;;;;;;3.00;1.60;;;10.70;1.00;;;;;;5082333;28;20171;-76
2022/04/06 12:47:01;;;;;;;3.00;1.50;;;10.70;1.00;;;;;;5098377;28;20285;-76
2022/04/06 12:49:37;;;;;;;4.57;1.60;;;10.70;1.00;;;;;;5099601;28;20190;-77
2022/04/06 12:52:15;;;;;;;2.57;1.60;;;10.60;99.90;;;;;;5100823;28;20182;-77
2022/04/06 12:54:45;;;;;;;3.60;1.90;;;10.60;1.00;;;;;;5097394;28;20174;-77
2022/04/06 12:57:16;;;;;;;3.40;1.70;;;10.70;99.90;;;;;;5080737;28;20308;-76
2022/04/06 13:00:00;;;;;;;3.87;2.20;;;10.60;1.00;;;;;;5082336;28;20596;-77
2022/04/06 13:02:29;;;;;;;4.90;1.63;;;10.60;1.00;;;;;;5081288;28;20182;-77
2022/04/06 13:05:02;;;;;;;4.30;1.87;;;10.60;99.90;;;;;;5087013;28;20236;-77